• Join FlightAware (Why Join?)
  • Login
  • US Flag 
03:52AM EST


 

Airport Tracker/Info


-or-


 

Live Flight TrackerFlight Track Log ✈ SKW2624 ✈ 22-May-2013 ✈ KSJC - KLAX

Flight Track Log - Related Links

Times and Time Zones

All times are in EDT time to prevent confusion due to time zone crossing. See the SKW2624 flight status page for this flight to view local times or setup timezone preferences in your user account.

Time Position Orientation Groundspeed Altitude Reporting Facility
EDT Latitude Longitude Course Direction KTS MPH feet Rate Location/Type
06:55PM 37.3833 -121.9500 332° Northwest 145 167 1,300  Level Northern Cal TRACON
06:56PM 37.4333 -121.9833 332° Northwest 210 242 3,900 1,800 Climbing Northern Cal TRACON
06:57PM 37.4500 -121.9167 73° East 229 264 5,000 540 Climbing Northern Cal TRACON
06:58PM 37.4000 -121.8667 142° Southeast 224 258 5,000 900 Level Northern Cal TRACON
06:59PM 37.3500 -121.8167 142° Southeast 277 319 6,900 2,400 Climbing Northern Cal TRACON
06:59PM 37.3258 -121.7897 138° Southeast 269 310 8,200 2,460 Climbing Oakland Center
07:00PM 37.2639 -121.7181 137° Southeast 305 351 10,300 1,980 Climbing Oakland Center
07:01PM 37.1931 -121.6339 137° Southeast 349 402 12,300 2,160 Climbing Oakland Center
07:02PM 37.1206 -121.5503 137° Southeast 357 411 14,700 2,040 Climbing Oakland Center
07:04PM 37.0453 -121.4686 139° Southeast 364 419 16,600 1,620 Climbing Oakland Center
07:05PM 36.9664 -121.3822 139° Southeast 376 433 18,100 1,440 Climbing Oakland Center
07:06PM 36.8847 -121.2917 138° Southeast 391 450 19,600 1,560 Climbing Oakland Center
07:07PM 36.7925 -121.1939 140° Southeast 400 460 21,300 1,380 Climbing Oakland Center
07:08PM 36.7075 -121.0986 138° Southeast 408 470 22,500 1,140 Climbing Oakland Center
07:09PM 36.6194 -121.0061 140° Southeast 413 475 23,700 1,080 Climbing Oakland Center
07:10PM 36.5306 -120.9094 139° Southeast 421 484 24,700 1,020 Climbing Oakland Center
07:11PM 36.4397 -120.8136 140° Southeast 427 491 25,800 960 Climbing Oakland Center
07:12PM 36.3481 -120.7153 139° Southeast 434 499 26,700 540 Climbing Oakland Center
07:13PM 36.2344 -120.5989 140° Southeast 440 506 27,000 120 Climbing Oakland Center
07:14PM 36.1364 -120.4928 139° Southeast 460 529 27,000  Level Oakland Center
07:15PM 36.0356 -120.3833 139° Southeast 480 552 27,000  Level Oakland Center
07:16PM 35.9397 -120.2858 141° Southeast 449 517 27,000  Level Oakland Center
07:17PM 35.8436 -120.1847 140° Southeast 450 518 27,000  Level Oakland Center
07:18PM 35.7472 -120.0839 140° Southeast 451 519 27,000  Level Oakland Center
07:19PM 35.6503 -119.9814 139° Southeast 455 524 27,000  Level Oakland Center
07:19PM 35.6089 -119.9456 145° Southeast 454 522 27,000 -120 Level Los Angeles Center
07:20PM 35.5036 -119.8542 145° Southeast 458 527 26,900  Descending Los Angeles Center
07:21PM 35.4389 -119.7992 145° Southeast 460 529 27,000 60 Climbing Oakland Center
07:22PM 35.3322 -119.7067 145° Southeast 465 535 27,000  Level Oakland Center
07:23PM 35.2703 -119.6528 145° Southeast 463 533 27,000  Level Los Angeles Center
07:24PM 35.1425 -119.5444 145° Southeast 464 534 27,000 -60 Level Los Angeles Center
07:25PM 35.0364 -119.4525 145° Southeast 466 536 26,900  Descending Los Angeles Center
07:26PM 34.9297 -119.3622 145° Southeast 467 537 27,000  Climbing Los Angeles Center
07:27PM 34.8244 -119.2728 145° Southeast 463 533 27,000 -1,200 Level Los Angeles Center
07:28PM 34.7183 -119.1844 146° Southeast 462 532 24,600 -2,580 Descending Los Angeles Center
07:29PM 34.6125 -119.0975 146° Southeast 470 541 21,700 -3,240 Descending Los Angeles Center
07:30PM 34.4897 -118.9936 145° Southeast 443 510 18,000 -3,300 Descending Los Angeles Center
07:31PM 34.3925 -118.9114 145° Southeast 426 490 15,000 -2,820 Descending Los Angeles Center
07:32PM 34.2944 -118.8597 156° South 383 441 12,200 -1,500 Descending Los Angeles Center
07:33PM 34.2008 -118.8253 163° South 351 404 12,000 -540 Descending Los Angeles Center
07:34PM 34.1125 -118.7917 163° South 332 382 11,200 -960 Descending Los Angeles Center
07:35PM 34.0383 -118.7292 145° Southeast 321 369 10,100 -600 Descending Los Angeles Center
07:36PM 34.0256 -118.6169 98° East 316 364 10,000 -780 Descending Los Angeles Center
07:37PM 34.0167 -118.5228 96° East 289 333 8,600 -1,320 Descending Los Angeles Center
07:38PM 34.0144 -118.4339 92° East 272 313 7,300 -1,680 Descending Los Angeles Center
07:39PM 34.0228 -118.3575 82° East 243 280 5,200 -1,920 Descending Los Angeles Center
07:40PM 33.9928 -118.3064 125° Southeast 221 254 3,400 -1,620 Descending Los Angeles Center
07:41PM 33.9600 -118.3444 224° Southwest 184 212 1,900 -1,440 Descending Los Angeles Center
07:42PM 33.9542 -118.3875 261° West 152 175 500 -840 Descending Los Angeles Center
07:43PM 33.9483 -118.4367 262° West 143 165 200 -300 Descending Los Angeles Center
07:45PM 33.9425 -118.4081 90° East  Level Estimated